Monday, January 26, 2015
22:28 UTC
  |  Log In   |  Register Free
Airport Search:

Pocono Mountains Municipal Airport
(KMPO)

Pocono Mountains Municipal Airport Diagram
No Airport Diagram Available

FAA data valid effective January 08, 2015 - March 05, 2015 (unless otherwise noted).

 
 
 
 
 
 
 
 
 
 
 
 
 
 

Current Aviation Weather for Pocono Mountains Municipal Airport (KMPO)

The most recent METAR observation for KMPO was updated at: 2218
METAR Summary (Translated METAR)
KMPO
262202Z AUTO 08017G25KT 1SM -SN FEW013 OVC020 M07/M10 A2973 RMK AO2 P0000 T10721100
KAVP
262203Z 05008KT 1 1/4SM -SN BKN029 OVC047 M06/M09 A2980 RMK AO2 P0000 T10561094
(19.6 nm NW from KMPO)
KABE
262202Z AUTO 06016KT 2SM -SN OVC040 M07/M10 A2981 RMK AO2 P0000 TSNO
(29.3 nm SW from KMPO)
TAF Summary (Translated TAF)
KAVP
(19.6 nm NW from KMPO)
261730Z 2618/2718 05007KT 5SM -SN OVC025 TEMPO 2618/2621 1SM -SN FM270100 04005KT 1SM -SN OVC025 FM271200 34012G18KT 2SM -SN OVC025
KABE
(29.3 nm SW from KMPO)
261743Z 2618/2718 05015G23KT 3SM -SN BKN015 OVC025 TEMPO 2618/2622 1SM -SN OVC012 FM262200 04016G28KT 1SM -SN OVC006 FM270200 02018G28KT 1/2SM SN OVC004 FM271500 33017G27KT 3SM -SN BLSN OVC010
  Airport Weather Conditions for KMPO

 Current Weather at MPO
19° F
Light Snow and Breezy
East winds at 20.7 mph
MPO NOAA Radar

Pressure: 29.74 in
Humidity: 81%
Wind: from the East at 20.7 gusting to 27.6 MPH (18 gusting to 24 KT)
Dew Point: 14.0°F
Visibility: 0.75 mi


Airport Weather Forecast for KMPO

Translated METAR and TAF for KMPO
Translated METAR for KMPO (2228 UTC 26 January 2015)
found at http://aviationweather.gov/adds/metars/
 
METAR text: KMPO 262202Z AUTO 08017G25KT 1SM -SN FEW013 OVC020 M07/M10 A2973 RMK AO2 P0000 T10721100
Conditions at: KMPO (MT. POCONO , PA, US) observed 2202 UTC 26 January 2015
Temperature: -7.2°C (19°F)
Dewpoint: -10.0°C (14°F) [RH = 80%]
Pressure (altimeter): 29.73 inches Hg (1006.9 mb)
Winds: from the E (80 degrees) at 20 MPH (17 knots; 8.8 m/s)
gusting to 29 MPH (25 knots; 13.0 m/s)
Visibility: 1.00 miles (1.61 km)
Ceiling: 2000 feet AGL
Clouds: few clouds at 1300 feet AGL
overcast cloud deck at 2000 feet AGL
Weather: -SN  (light snow)
Translated TAF for KMPO

There is no translated TAF available for this airport

Find All Airport Services Find A Hotel Find A Rental Car Find A Golf Course Find A Restaurant $100 Hamburger



FBO's on the Field
FBO Company Facility Photos Services Transportation Aviation Fuel Prices: Prices include tax
Catering Weather Repair Courtesy Rental Type 100LL JetA JetA+ MOGAS 8087
 
Pocono Mountains Municipal Airport Authority

This FBO has not yet been rated
FS:Phillips 66
Last Updated: Dec-24
Login to update fuel prices
SS:
Contact Pocono Mountains Municipal Airport AuthorityMore FBO Information
 
Add another FBO Facility Photos Catering Weather Repair Courtesy Rental Type 100LL JetA JetA+ MOGAS 8087
Services Transportation Aviation Fuel Prices: Prices include tax


model-print
model-print
model-print
model-print